createdAt,value
2019-02-15T00:00:40.478Z,1028.03
2019-02-15T00:01:40.456Z,1028.06
2019-02-15T00:02:40.443Z,1028.05
2019-02-15T00:03:40.433Z,1028.08
2019-02-15T00:04:40.429Z,1028.02
2019-02-15T00:05:40.437Z,1028.05
2019-02-15T00:06:40.405Z,1028.08
2019-02-15T00:07:40.387Z,1028.07
2019-02-15T00:08:40.390Z,1028.09
2019-02-15T00:09:40.367Z,1028.08
2019-02-15T00:10:40.359Z,1028.08
2019-02-15T00:11:40.356Z,1028.08
2019-02-15T00:12:40.344Z,1028.03
2019-02-15T00:13:40.332Z,1028.03
2019-02-15T00:14:40.316Z,1028.04
2019-02-15T00:15:40.301Z,1028.04
2019-02-15T00:16:40.304Z,1028.05
2019-02-15T00:17:40.277Z,1027.99
2019-02-15T00:18:40.282Z,1028.12
2019-02-15T00:19:40.255Z,1028.05
2019-02-15T00:20:40.253Z,1028.06
2019-02-15T00:21:40.232Z,1028.07
2019-02-15T00:22:40.242Z,1028.08
2019-02-15T00:23:40.235Z,1028.04
2019-02-15T00:24:40.200Z,1028.04
2019-02-15T00:25:40.186Z,1028.03
2019-02-15T00:26:40.190Z,1028.04
2019-02-15T00:27:40.169Z,1028.04
2019-02-15T00:28:40.177Z,1028.04
2019-02-15T00:29:40.146Z,1028.05
2019-02-15T00:30:40.136Z,1028.07
2019-02-15T00:31:40.125Z,1028.07
2019-02-15T00:32:40.116Z,1028.04
2019-02-15T00:33:40.107Z,1028.08
2019-02-15T00:34:40.105Z,1028.03
2019-02-15T00:35:40.083Z,1028.05
2019-02-15T00:36:40.064Z,1028.03
2019-02-15T00:37:40.055Z,1028.05
2019-02-15T00:38:40.046Z,1028.05
2019-02-15T00:39:40.032Z,1028.05
2019-02-15T00:40:40.031Z,1028.02
2019-02-15T00:41:40.015Z,1028.03
2019-02-15T00:42:40.002Z,1028.00
2019-02-15T00:43:39.992Z,1028.02
2019-02-15T00:44:39.990Z,1028.06
2019-02-15T00:45:39.981Z,1028.00
2019-02-15T00:46:39.954Z,1028.03
2019-02-15T00:47:39.945Z,1028.05
2019-02-15T00:48:39.936Z,1028.03
2019-02-15T00:49:39.942Z,1027.99
2019-02-15T00:50:39.909Z,1027.98
2019-02-15T00:51:39.917Z,1027.98
2019-02-15T00:52:39.902Z,1027.93
2019-02-15T00:53:39.882Z,1027.96
2019-02-15T00:54:39.863Z,1027.90
2019-02-15T00:55:39.858Z,1027.97
2019-02-15T00:56:39.910Z,1027.96
2019-02-15T00:57:39.829Z,1028.00
2019-02-15T00:58:39.826Z,1028.04
2019-02-15T00:59:39.809Z,1028.08
2019-02-15T01:00:39.815Z,1028.06
2019-02-15T01:01:39.794Z,1028.07
2019-02-15T01:02:39.790Z,1028.03
2019-02-15T01:03:39.789Z,1028.04
2019-02-15T01:04:39.759Z,1028.04
2019-02-15T01:05:39.754Z,1027.98
2019-02-15T01:06:39.739Z,1027.97
2019-02-15T01:07:39.756Z,1027.96
2019-02-15T01:08:39.714Z,1028.00
2019-02-15T01:09:39.703Z,1028.00
2019-02-15T01:10:39.693Z,1028.01
2019-02-15T01:11:39.697Z,1027.96
2019-02-15T01:12:39.667Z,1027.94
2019-02-15T01:13:39.670Z,1027.86
2019-02-15T01:14:39.649Z,1027.94
2019-02-15T01:15:39.630Z,1027.91
2019-02-15T01:16:39.629Z,1027.93
2019-02-15T01:17:39.623Z,1027.91
2019-02-15T01:18:39.597Z,1027.90
2019-02-15T01:19:39.600Z,1027.92
2019-02-15T01:20:39.582Z,1027.93
2019-02-15T01:21:39.569Z,1027.91
2019-02-15T01:22:39.563Z,1027.88
2019-02-15T01:23:39.549Z,1027.90
2019-02-15T01:24:39.541Z,1027.93
2019-02-15T01:25:39.556Z,1027.94
2019-02-15T01:26:39.513Z,1027.92
2019-02-15T01:27:39.501Z,1027.94
2019-02-15T01:28:39.492Z,1027.89
2019-02-15T01:29:39.476Z,1027.86
2019-02-15T01:30:39.471Z,1027.87
2019-02-15T01:31:39.472Z,1027.88
2019-02-15T01:32:39.443Z,1027.87
2019-02-15T01:33:39.430Z,1027.85
2019-02-15T01:34:39.429Z,1027.84
2019-02-15T01:35:39.409Z,1027.90
2019-02-15T01:36:39.406Z,1027.84
2019-02-15T01:37:39.387Z,1027.89
2019-02-15T01:38:39.380Z,1027.87
2019-02-15T01:39:39.369Z,1027.86
2019-02-15T01:40:39.358Z,1027.85
2019-02-15T01:41:39.366Z,1027.80
2019-02-15T01:42:39.338Z,1027.82
2019-02-15T01:43:40.349Z,1027.81
2019-02-15T01:44:39.321Z,1027.82
2019-02-15T01:45:39.302Z,1027.79
2019-02-15T01:46:39.290Z,1027.80
2019-02-15T01:47:40.200Z,1027.76
2019-02-15T01:48:39.284Z,1027.78
2019-02-15T01:49:39.255Z,1027.74
2019-02-15T01:50:39.245Z,1027.75
2019-02-15T01:51:39.236Z,1027.76
2019-02-15T01:52:39.223Z,1027.70
2019-02-15T01:53:39.246Z,1027.78
2019-02-15T01:54:39.207Z,1027.74
2019-02-15T01:55:39.192Z,1027.69
2019-02-15T01:56:39.203Z,1027.70
2019-02-15T01:57:39.171Z,1027.75
2019-02-15T01:58:39.163Z,1027.70
2019-02-15T01:59:39.171Z,1027.71
2019-02-15T02:00:39.148Z,1027.66
2019-02-15T02:01:39.139Z,1027.66
2019-02-15T02:02:39.123Z,1027.65
2019-02-15T02:03:39.126Z,1027.60
2019-02-15T02:04:39.096Z,1027.61
2019-02-15T02:05:39.095Z,1027.62
2019-02-15T02:06:39.079Z,1027.59
2019-02-15T02:07:39.080Z,1027.58
2019-02-15T02:08:39.053Z,1027.56
2019-02-15T02:09:39.042Z,1027.57
2019-02-15T02:10:39.030Z,1027.54
2019-02-15T02:11:39.036Z,1027.54
2019-02-15T02:12:39.007Z,1027.56
2019-02-15T02:13:39.026Z,1027.53
2019-02-15T02:14:38.990Z,1027.51
2019-02-15T02:15:38.977Z,1027.53
2019-02-15T02:16:38.957Z,1027.54
2019-02-15T02:17:38.962Z,1027.48
2019-02-15T02:18:38.950Z,1027.53
2019-02-15T02:19:38.926Z,1027.50
2019-02-15T02:20:38.915Z,1027.51
2019-02-15T02:21:38.910Z,1027.47
2019-02-15T02:22:38.894Z,1027.46
2019-02-15T02:23:38.895Z,1027.45
2019-02-15T02:24:38.899Z,1027.44
2019-02-15T02:25:38.862Z,1027.44
2019-02-15T02:26:38.850Z,1027.40
2019-02-15T02:27:38.850Z,1027.41
2019-02-15T02:28:38.824Z,1027.39
2019-02-15T02:29:38.837Z,1027.40
2019-02-15T02:30:38.824Z,1027.36
2019-02-15T02:31:38.793Z,1027.34
2019-02-15T02:32:38.784Z,1027.31
2019-02-15T02:33:38.770Z,1027.37
2019-02-15T02:34:38.758Z,1027.34
2019-02-15T02:35:38.759Z,1027.36
2019-02-15T02:36:38.754Z,1027.37
2019-02-15T02:37:38.731Z,1027.32
2019-02-15T02:38:38.717Z,1027.36
2019-02-15T02:39:38.706Z,1027.29
2019-02-15T02:40:38.709Z,1027.30
2019-02-15T02:41:38.682Z,1027.35
2019-02-15T02:42:38.675Z,1027.40
2019-02-15T02:43:38.660Z,1027.36
2019-02-15T02:44:38.663Z,1027.37
2019-02-15T02:45:38.649Z,1027.36
2019-02-15T02:46:38.656Z,1027.34
2019-02-15T02:47:38.623Z,1027.38
2019-02-15T02:48:38.602Z,1027.31
2019-02-15T02:49:38.600Z,1027.33
2019-02-15T02:50:38.591Z,1027.34
2019-02-15T02:51:38.580Z,1027.27
2019-02-15T02:52:38.594Z,1027.25
2019-02-15T02:53:46.118Z,1027.25
2019-02-15T02:54:38.543Z,1027.24
2019-02-15T02:55:38.554Z,1027.22
2019-02-15T02:56:38.518Z,1027.25
2019-02-15T02:57:38.551Z,1027.23
2019-02-15T02:58:38.513Z,1027.24
2019-02-15T02:59:38.486Z,1027.23
2019-02-15T03:00:38.475Z,1027.30
2019-02-15T03:01:38.475Z,1027.25
2019-02-15T03:02:38.449Z,1027.29
2019-02-15T03:03:38.467Z,1027.24
2019-02-15T03:04:38.439Z,1027.22
2019-02-15T03:05:38.433Z,1027.19
2019-02-15T03:06:38.424Z,1027.21
2019-02-15T03:07:38.429Z,1027.24
2019-02-15T03:08:38.397Z,1027.21
2019-02-15T03:09:38.375Z,1027.21
2019-02-15T03:10:38.379Z,1027.21
2019-02-15T03:11:38.395Z,1027.22
2019-02-15T03:12:38.349Z,1027.19
2019-02-15T03:13:38.350Z,1027.23
2019-02-15T03:14:38.322Z,1027.21
2019-02-15T03:15:38.333Z,1027.18
2019-02-15T03:16:38.307Z,1027.17
2019-02-15T03:17:38.340Z,1027.17
2019-02-15T03:18:38.288Z,1027.14
2019-02-15T03:19:38.323Z,1027.15
2019-02-15T03:20:38.305Z,1027.06
2019-02-15T03:21:38.271Z,1027.12
2019-02-15T03:22:38.243Z,1027.04
2019-02-15T03:23:38.268Z,1027.10
2019-02-15T03:24:38.234Z,1027.11
2019-02-15T03:25:38.228Z,1027.04
2019-02-15T03:26:38.193Z,1027.09
2019-02-15T03:27:38.195Z,1027.05
2019-02-15T03:28:38.234Z,1027.09
2019-02-15T03:29:38.186Z,1027.06
2019-02-15T03:30:38.147Z,1027.02
2019-02-15T03:31:38.180Z,1027.02
2019-02-15T03:32:38.123Z,1027.04
2019-02-15T03:33:38.113Z,1027.03
2019-02-15T03:34:38.110Z,1026.99
2019-02-15T03:35:38.106Z,1026.96
2019-02-15T03:36:38.076Z,1026.98
2019-02-15T03:37:38.071Z,1026.99
2019-02-15T03:38:38.082Z,1026.96
2019-02-15T03:39:38.047Z,1026.97
2019-02-15T03:40:38.031Z,1026.96
2019-02-15T03:41:38.029Z,1026.98
2019-02-15T03:42:38.038Z,1026.99
2019-02-15T03:43:37.999Z,1027.00
2019-02-15T03:44:37.988Z,1027.03
2019-02-15T03:45:37.995Z,1026.99
2019-02-15T03:46:38.030Z,1026.97
2019-02-15T03:47:37.954Z,1026.97
2019-02-15T03:48:37.941Z,1026.93
2019-02-15T03:49:37.952Z,1026.94
2019-02-15T03:50:37.919Z,1026.90
2019-02-15T03:51:37.919Z,1026.88
2019-02-15T03:52:37.917Z,1026.90
2019-02-15T03:53:37.911Z,1026.90
2019-02-15T03:54:37.875Z,1026.85
2019-02-15T03:55:37.896Z,1026.89
2019-02-15T03:56:37.866Z,1026.83
2019-02-15T03:57:37.862Z,1026.84
2019-02-15T03:58:37.891Z,1026.86
2019-02-15T03:59:37.837Z,1026.81
2019-02-15T04:00:37.825Z,1026.82
2019-02-15T04:01:37.820Z,1026.81
2019-02-15T04:02:37.797Z,1026.81
2019-02-15T04:03:37.797Z,1026.78
2019-02-15T04:04:37.795Z,1026.79
2019-02-15T04:05:37.758Z,1026.79
2019-02-15T04:06:37.779Z,1026.84
2019-02-15T04:07:37.759Z,1026.85
2019-02-15T04:08:37.740Z,1026.84
2019-02-15T04:09:37.740Z,1026.84
2019-02-15T04:10:37.742Z,1026.80
2019-02-15T04:11:37.704Z,1026.82
2019-02-15T04:12:37.682Z,1026.87
2019-02-15T04:13:37.667Z,1026.86
2019-02-15T04:14:37.671Z,1026.86
2019-02-15T04:15:37.677Z,1026.80
2019-02-15T04:16:37.636Z,1026.88
2019-02-15T04:17:37.628Z,1026.86
2019-02-15T04:18:37.631Z,1026.86
2019-02-15T04:19:37.601Z,1026.86
2019-02-15T04:20:37.598Z,1026.88
2019-02-15T04:21:37.629Z,1026.88
2019-02-15T04:22:37.599Z,1026.82
2019-02-15T04:23:37.556Z,1026.87
2019-02-15T04:24:37.559Z,1026.92
2019-02-15T04:25:37.545Z,1026.88
2019-02-15T04:26:37.566Z,1026.90
2019-02-15T04:27:37.543Z,1026.84
2019-02-15T04:28:37.504Z,1026.86
2019-02-15T04:29:37.519Z,1026.85
2019-02-15T04:30:37.476Z,1026.76
2019-02-15T04:31:37.468Z,1026.83
2019-02-15T04:32:37.477Z,1026.85
2019-02-15T04:33:37.457Z,1026.78
2019-02-15T04:34:37.433Z,1026.83
2019-02-15T04:35:37.425Z,1026.76
2019-02-15T04:36:37.426Z,1026.78
2019-02-15T04:37:37.399Z,1026.78
2019-02-15T04:38:37.393Z,1026.75
2019-02-15T04:39:37.416Z,1026.75
2019-02-15T04:40:37.396Z,1026.74
2019-02-15T04:41:37.363Z,1026.79
2019-02-15T04:42:37.346Z,1026.80
2019-02-15T04:43:37.343Z,1026.81
2019-02-15T04:44:42.843Z,1026.80
2019-02-15T04:45:38.328Z,1026.77
2019-02-15T04:46:37.333Z,1026.79
2019-02-15T04:47:37.307Z,1026.77
2019-02-15T04:48:37.278Z,1026.85
2019-02-15T04:49:37.317Z,1026.79
2019-02-15T04:50:37.263Z,1026.85
2019-02-15T04:51:37.278Z,1026.85
2019-02-15T04:52:37.262Z,1026.87
2019-02-15T04:53:37.250Z,1026.88
2019-02-15T04:54:37.213Z,1026.83
2019-02-15T04:55:37.258Z,1026.85
2019-02-15T04:56:37.202Z,1026.85
2019-02-15T04:57:37.184Z,1026.82
2019-02-15T04:58:37.207Z,1026.85
2019-02-15T04:59:37.182Z,1026.88
2019-02-15T05:00:37.194Z,1026.82
2019-02-15T05:01:37.146Z,1026.83
2019-02-15T05:02:37.157Z,1026.81
2019-02-15T05:03:37.126Z,1026.84
2019-02-15T05:04:37.113Z,1026.85
2019-02-15T05:05:37.104Z,1026.82
2019-02-15T05:06:37.078Z,1026.87
2019-02-15T05:07:37.073Z,1026.86
2019-02-15T05:08:37.077Z,1026.88
2019-02-15T05:09:37.064Z,1026.88
2019-02-15T05:10:37.064Z,1026.86
2019-02-15T05:11:37.023Z,1026.89
2019-02-15T05:12:37.020Z,1026.88
2019-02-15T05:13:37.001Z,1026.85
2019-02-15T05:14:36.996Z,1026.82
2019-02-15T05:15:36.991Z,1026.79
2019-02-15T05:16:36.980Z,1026.78
2019-02-15T05:17:36.957Z,1026.80
2019-02-15T05:18:36.948Z,1026.84
2019-02-15T05:19:36.961Z,1026.79
2019-02-15T05:20:36.915Z,1026.75
2019-02-15T05:21:36.913Z,1026.78
2019-02-15T05:22:36.915Z,1026.76
2019-02-15T05:23:36.897Z,1026.76
2019-02-15T05:24:36.909Z,1026.80
2019-02-15T05:25:36.863Z,1026.84
2019-02-15T05:26:36.851Z,1026.75
2019-02-15T05:27:36.849Z,1026.79
2019-02-15T05:28:36.868Z,1026.81
2019-02-15T05:29:36.823Z,1026.84
2019-02-15T05:30:36.827Z,1026.81
2019-02-15T05:31:36.832Z,1026.83
2019-02-15T05:32:36.790Z,1026.83
2019-02-15T05:33:36.798Z,1026.82
2019-02-15T05:34:36.795Z,1026.74
2019-02-15T05:35:36.755Z,1026.77
2019-02-15T05:36:36.746Z,1026.77
2019-02-15T05:37:36.758Z,1026.80
2019-02-15T05:38:36.756Z,1026.81
2019-02-15T05:39:36.721Z,1026.78
2019-02-15T05:40:36.712Z,1026.80
2019-02-15T05:41:36.703Z,1026.76
2019-02-15T05:42:36.698Z,1026.72
2019-02-15T05:43:36.673Z,1026.74
2019-02-15T05:44:36.669Z,1026.72
2019-02-15T05:45:36.695Z,1026.78
2019-02-15T05:46:36.629Z,1026.75
2019-02-15T05:47:36.620Z,1026.73
2019-02-15T05:48:36.626Z,1026.76
2019-02-15T05:49:36.602Z,1026.73
2019-02-15T05:50:36.604Z,1026.73
2019-02-15T05:51:36.602Z,1026.75
2019-02-15T05:52:36.597Z,1026.72
2019-02-15T05:53:36.555Z,1026.76
2019-02-15T05:54:36.551Z,1026.80
2019-02-15T05:55:36.548Z,1026.78
2019-02-15T05:56:36.543Z,1026.81
2019-02-15T05:57:36.524Z,1026.79
2019-02-15T05:58:36.512Z,1026.75
2019-02-15T05:59:36.511Z,1026.77
2019-02-15T06:00:37.383Z,1026.77
2019-02-15T06:01:36.470Z,1026.78
2019-02-15T06:02:36.469Z,1026.74
2019-02-15T06:03:36.460Z,1026.79
2019-02-15T06:04:36.456Z,1026.77
2019-02-15T06:05:36.443Z,1026.79
2019-02-15T06:06:36.422Z,1026.75
2019-02-15T06:07:36.423Z,1026.74
2019-02-15T06:08:36.402Z,1026.78
2019-02-15T06:09:36.414Z,1026.76
2019-02-15T06:10:36.414Z,1026.73
2019-02-15T06:11:36.397Z,1026.71
2019-02-15T06:12:36.357Z,1026.72
2019-02-15T06:13:36.348Z,1026.73
2019-02-15T06:14:36.326Z,1026.72
2019-02-15T06:15:36.354Z,1026.72
2019-02-15T06:16:36.301Z,1026.74
2019-02-15T06:17:36.317Z,1026.76
2019-02-15T06:18:36.307Z,1026.77
2019-02-15T06:19:36.275Z,1026.74
2019-02-15T06:20:36.270Z,1026.78
2019-02-15T06:21:36.620Z,1026.76
2019-02-15T06:22:36.252Z,1026.74
2019-02-15T06:23:36.237Z,1026.72
2019-02-15T06:24:36.254Z,1026.76
2019-02-15T06:25:36.201Z,1026.73
2019-02-15T06:26:36.192Z,1026.76
2019-02-15T06:27:36.184Z,1026.80
2019-02-15T06:28:36.194Z,1026.84
2019-02-15T06:29:36.157Z,1026.83
2019-02-15T06:30:36.155Z,1026.80
2019-02-15T06:31:36.163Z,1026.79
2019-02-15T06:32:36.143Z,1026.79
2019-02-15T06:33:36.125Z,1026.83
2019-02-15T06:34:36.130Z,1026.83
2019-02-15T06:35:36.108Z,1026.80
2019-02-15T06:36:36.112Z,1026.81
2019-02-15T06:37:36.069Z,1026.75
2019-02-15T06:38:36.070Z,1026.79
2019-02-15T06:39:36.066Z,1026.81
2019-02-15T06:40:36.052Z,1026.80
2019-02-15T06:41:36.023Z,1026.80
2019-02-15T06:42:36.030Z,1026.76
2019-02-15T06:43:36.003Z,1026.82
2019-02-15T06:44:35.995Z,1026.82
2019-02-15T06:45:36.017Z,1026.80
2019-02-15T06:46:35.985Z,1026.85
2019-02-15T06:47:35.985Z,1026.85
2019-02-15T06:48:35.954Z,1026.83
2019-02-15T06:49:35.960Z,1026.83
2019-02-15T06:50:35.948Z,1026.88
2019-02-15T06:51:35.940Z,1026.82
2019-02-15T06:52:35.986Z,1026.78
2019-02-15T06:53:35.897Z,1026.79
2019-02-15T06:54:35.886Z,1026.81
2019-02-15T06:55:35.889Z,1026.78
2019-02-15T06:56:35.928Z,1026.81
2019-02-15T06:57:35.858Z,1026.82
2019-02-15T06:58:35.897Z,1026.79
2019-02-15T06:59:35.827Z,1026.78
2019-02-15T07:00:35.844Z,1026.79
2019-02-15T07:01:35.804Z,1026.76
2019-02-15T07:02:35.813Z,1026.80
2019-02-15T07:03:35.809Z,1026.79
2019-02-15T07:04:35.790Z,1026.82
2019-02-15T07:05:35.765Z,1026.85
2019-02-15T07:06:35.754Z,1026.82
2019-02-15T07:07:35.796Z,1026.85
2019-02-15T07:08:35.729Z,1026.84
2019-02-15T07:09:35.756Z,1026.86
2019-02-15T07:10:35.720Z,1026.85
2019-02-15T07:11:35.719Z,1026.83
2019-02-15T07:12:35.734Z,1026.83
2019-02-15T07:13:35.697Z,1026.84
2019-02-15T07:14:35.686Z,1026.86
2019-02-15T07:15:35.688Z,1026.82
2019-02-15T07:16:35.652Z,1026.83
2019-02-15T07:17:35.641Z,1026.85
2019-02-15T07:18:35.636Z,1026.89
2019-02-15T07:19:35.619Z,1026.93
2019-02-15T07:20:35.603Z,1026.93
2019-02-15T07:21:35.646Z,1026.95
2019-02-15T07:22:35.576Z,1026.96
2019-02-15T07:23:35.571Z,1026.96
2019-02-15T07:24:35.582Z,1026.94
2019-02-15T07:25:35.568Z,1026.95
2019-02-15T07:26:35.572Z,1026.96
2019-02-15T07:27:35.537Z,1026.98
2019-02-15T07:28:35.527Z,1026.94
2019-02-15T07:29:35.520Z,1026.96
2019-02-15T07:30:35.515Z,1026.87
2019-02-15T07:31:35.506Z,1026.86
2019-02-15T07:32:35.464Z,1026.87
2019-02-15T07:33:35.487Z,1026.90
2019-02-15T07:34:35.444Z,1026.94
2019-02-15T07:35:35.446Z,1026.90
2019-02-15T07:36:35.450Z,1026.90
2019-02-15T07:37:35.412Z,1026.90
2019-02-15T07:38:35.439Z,1026.93
2019-02-15T07:39:35.390Z,1026.94
2019-02-15T07:40:35.399Z,1026.92
2019-02-15T07:41:35.397Z,1026.94
2019-02-15T07:42:35.355Z,1026.89
2019-02-15T07:43:35.375Z,1026.93
2019-02-15T07:44:35.351Z,1026.92
2019-02-15T07:45:42.690Z,1026.92
2019-02-15T07:46:36.335Z,1026.93
2019-02-15T07:47:35.313Z,1026.90
2019-02-15T07:48:35.307Z,1026.92
2019-02-15T07:49:35.334Z,1026.92
2019-02-15T07:50:35.280Z,1026.87
2019-02-15T07:51:35.259Z,1026.90
2019-02-15T07:52:35.259Z,1026.85
2019-02-15T07:53:35.279Z,1026.89
2019-02-15T07:54:35.221Z,1026.87
2019-02-15T07:55:35.269Z,1026.84
2019-02-15T07:56:35.203Z,1026.89
2019-02-15T07:57:35.203Z,1026.90
2019-02-15T07:58:35.201Z,1026.85
2019-02-15T07:59:35.190Z,1026.89
2019-02-15T08:00:35.159Z,1026.93
2019-02-15T08:01:35.165Z,1026.85
2019-02-15T08:02:35.132Z,1026.89
2019-02-15T08:03:35.121Z,1026.92
2019-02-15T08:04:35.142Z,1026.90
2019-02-15T08:05:35.152Z,1026.86
2019-02-15T08:06:35.121Z,1026.86
2019-02-15T08:07:35.116Z,1026.82
2019-02-15T08:08:35.098Z,1026.78
2019-02-15T08:09:35.080Z,1026.78
2019-02-15T08:10:35.071Z,1026.75
2019-02-15T08:11:35.063Z,1026.73
2019-02-15T08:12:35.056Z,1026.69
2019-02-15T08:13:35.039Z,1026.67
2019-02-15T08:14:34.999Z,1026.71
2019-02-15T08:15:36.425Z,1026.71
2019-02-15T08:16:35.005Z,1026.74
2019-02-15T08:17:34.966Z,1026.73
2019-02-15T08:18:34.993Z,1026.71
2019-02-15T08:19:34.953Z,1026.71
2019-02-15T08:20:35.025Z,1026.73
2019-02-15T08:21:34.922Z,1026.75
2019-02-15T08:22:34.968Z,1026.71
2019-02-15T08:23:34.902Z,1026.71
2019-02-15T08:24:34.900Z,1026.76
2019-02-15T08:25:34.922Z,1026.81
2019-02-15T08:26:34.920Z,1026.89
2019-02-15T08:27:34.895Z,1026.83
2019-02-15T08:28:34.862Z,1026.84
2019-02-15T08:29:34.884Z,1026.82
2019-02-15T08:30:34.839Z,1026.86
2019-02-15T08:31:34.811Z,1027.05
2019-02-15T08:32:34.815Z,1027.13
2019-02-15T08:33:34.816Z,1027.09
2019-02-15T08:34:34.849Z,1027.05
2019-02-15T08:35:34.775Z,1027.10
2019-02-15T08:36:34.802Z,1027.08
2019-02-15T08:37:34.748Z,1027.05
2019-02-15T08:38:34.768Z,1026.93
2019-02-15T08:39:34.784Z,1026.98
2019-02-15T08:40:34.733Z,1027.03
2019-02-15T08:41:34.731Z,1026.97
2019-02-15T08:42:34.702Z,1026.87
2019-02-15T08:43:34.793Z,1026.67
2019-02-15T08:44:34.729Z,1026.59
2019-02-15T08:45:34.714Z,1026.59
2019-02-15T08:46:34.674Z,1026.56
2019-02-15T08:47:34.645Z,1026.61
2019-02-15T08:48:36.173Z,1026.61
2019-02-15T08:49:34.610Z,1026.60
2019-02-15T08:50:34.629Z,1026.57
2019-02-15T08:51:34.623Z,1026.59
2019-02-15T08:52:34.577Z,1026.59
2019-02-15T08:53:34.606Z,1026.60
2019-02-15T08:54:34.565Z,1026.60
2019-02-15T08:55:34.571Z,1026.63
2019-02-15T08:56:34.603Z,1026.64
2019-02-15T08:57:34.545Z,1026.66
2019-02-15T08:58:34.582Z,1026.66
2019-02-15T08:59:34.494Z,1026.64
2019-02-15T09:00:34.500Z,1026.65
2019-02-15T09:01:34.522Z,1026.62
2019-02-15T09:02:34.510Z,1026.64
2019-02-15T09:03:34.524Z,1026.69
2019-02-15T09:04:34.462Z,1026.62
2019-02-15T09:05:34.427Z,1026.61
2019-02-15T09:06:34.417Z,1026.60
2019-02-15T09:07:34.447Z,1026.58
2019-02-15T09:08:34.425Z,1026.61
2019-02-15T09:09:34.391Z,1026.58
2019-02-15T09:10:34.387Z,1026.56
2019-02-15T09:11:34.362Z,1026.56
2019-02-15T09:12:34.382Z,1026.56
2019-02-15T09:13:34.377Z,1026.61
2019-02-15T09:14:34.338Z,1026.55
2019-02-15T09:15:34.374Z,1026.54
2019-02-15T09:16:34.331Z,1026.53
2019-02-15T09:17:34.327Z,1026.52
2019-02-15T09:18:34.307Z,1026.51
2019-02-15T09:19:34.300Z,1026.50
2019-02-15T09:20:34.279Z,1026.50
2019-02-15T09:21:34.314Z,1026.51
2019-02-15T09:22:34.291Z,1026.56
2019-02-15T09:23:34.263Z,1026.56
2019-02-15T09:24:34.238Z,1026.59
2019-02-15T09:25:34.273Z,1026.57
2019-02-15T09:26:34.231Z,1026.57
2019-02-15T09:27:34.183Z,1026.59
2019-02-15T09:28:34.182Z,1026.52
2019-02-15T09:29:34.204Z,1026.54
2019-02-15T09:30:34.149Z,1026.53
2019-02-15T09:31:34.178Z,1026.52
2019-02-15T09:32:34.245Z,1026.54
2019-02-15T09:33:34.127Z,1026.50
2019-02-15T09:34:34.138Z,1026.50
2019-02-15T09:35:34.126Z,1026.53
2019-02-15T09:36:34.081Z,1026.53
2019-02-15T09:37:34.102Z,1026.52
2019-02-15T09:38:34.072Z,1026.52
2019-02-15T09:39:34.081Z,1026.52
2019-02-15T09:40:34.063Z,1026.55
2019-02-15T09:41:34.035Z,1026.52
2019-02-15T09:42:34.024Z,1026.50
2019-02-15T09:43:34.019Z,1026.52
2019-02-15T09:44:34.034Z,1026.50
2019-02-15T09:45:33.998Z,1026.54
2019-02-15T09:46:34.015Z,1026.48
2019-02-15T09:47:33.981Z,1026.48
2019-02-15T09:48:33.947Z,1026.49
2019-02-15T09:49:33.993Z,1026.51
2019-02-15T09:50:33.940Z,1026.45
2019-02-15T09:51:33.939Z,1026.46
2019-02-15T09:52:33.907Z,1026.47
2019-02-15T09:53:33.899Z,1026.46
2019-02-15T09:54:33.934Z,1026.46
2019-02-15T09:55:33.900Z,1026.45
2019-02-15T09:56:33.866Z,1026.44
2019-02-15T09:57:33.851Z,1026.47
2019-02-15T09:58:33.836Z,1026.42
2019-02-15T09:59:33.829Z,1026.42
2019-02-15T10:00:33.857Z,1026.41
2019-02-15T10:01:33.887Z,1026.42
2019-02-15T10:02:33.792Z,1026.43
2019-02-15T10:03:33.824Z,1026.42
2019-02-15T10:04:33.785Z,1026.44
2019-02-15T10:05:33.761Z,1026.44
2019-02-15T10:06:33.746Z,1026.48
2019-02-15T10:07:33.754Z,1026.41
2019-02-15T10:08:33.724Z,1026.45
2019-02-15T10:09:33.721Z,1026.43
2019-02-15T10:10:33.713Z,1026.43
2019-02-15T10:11:33.746Z,1026.41
2019-02-15T10:12:33.703Z,1026.44
2019-02-15T10:13:33.672Z,1026.41
2019-02-15T10:14:33.660Z,1026.37
2019-02-15T10:15:33.777Z,1026.38
2019-02-15T10:16:33.759Z,1026.41
2019-02-15T10:17:33.650Z,1026.36
2019-02-15T10:18:33.690Z,1026.33
2019-02-15T10:19:33.642Z,1026.36
2019-02-15T10:20:33.626Z,1026.32
2019-02-15T10:21:33.616Z,1026.37
2019-02-15T10:22:33.646Z,1026.34
2019-02-15T10:23:33.616Z,1026.38
2019-02-15T10:24:33.615Z,1026.35
2019-02-15T10:25:43.553Z,1026.38
2019-02-15T10:26:33.523Z,1026.34
2019-02-15T10:27:33.508Z,1026.37
2019-02-15T10:28:33.498Z,1026.38
2019-02-15T10:29:33.489Z,1026.40
2019-02-15T10:30:33.479Z,1026.43
2019-02-15T10:31:33.477Z,1026.41
2019-02-15T10:32:33.458Z,1026.41
2019-02-15T10:33:33.465Z,1026.39
2019-02-15T10:34:33.431Z,1026.44
2019-02-15T10:35:33.435Z,1026.40
2019-02-15T10:36:33.412Z,1026.37
2019-02-15T10:37:33.418Z,1026.36
2019-02-15T10:38:33.406Z,1026.40
2019-02-15T10:39:33.377Z,1026.35
2019-02-15T10:40:33.368Z,1026.36
2019-02-15T10:41:33.353Z,1026.35
2019-02-15T10:42:33.346Z,1026.37
2019-02-15T10:43:33.330Z,1026.34
2019-02-15T10:44:33.334Z,1026.32
2019-02-15T10:45:33.311Z,1026.31
2019-02-15T10:46:37.817Z,1026.31
2019-02-15T10:47:33.317Z,1026.33
2019-02-15T10:48:33.290Z,1026.29
2019-02-15T10:49:33.289Z,1026.20
2019-02-15T10:50:33.264Z,1026.15
2019-02-15T10:51:33.244Z,1026.17
2019-02-15T10:52:33.239Z,1026.15
2019-02-15T10:53:33.223Z,1026.15
2019-02-15T10:54:33.215Z,1026.14
2019-02-15T10:55:33.212Z,1026.14
2019-02-15T10:56:33.198Z,1026.14
2019-02-15T10:57:33.208Z,1026.06
2019-02-15T10:58:33.167Z,1026.07
2019-02-15T10:59:33.157Z,1026.08
2019-02-15T11:00:33.138Z,1026.08
2019-02-15T11:01:33.128Z,1026.04
2019-02-15T11:02:33.135Z,1026.06
2019-02-15T11:03:33.120Z,1026.06
2019-02-15T11:04:33.106Z,1026.06
2019-02-15T11:05:33.087Z,1026.05
2019-02-15T11:06:33.075Z,1026.03
2019-02-15T11:07:33.069Z,1026.02
2019-02-15T11:08:33.062Z,1026.06
2019-02-15T11:09:33.049Z,1026.09
2019-02-15T11:10:33.036Z,1026.08
2019-02-15T11:11:33.019Z,1026.10
2019-02-15T11:12:33.004Z,1026.07
2019-02-15T11:13:33.021Z,1026.05
2019-02-15T11:14:33.001Z,1026.04
2019-02-15T11:15:32.975Z,1026.06
2019-02-15T11:16:32.980Z,1026.07
2019-02-15T11:17:32.960Z,1026.04
2019-02-15T11:18:32.934Z,1025.99
2019-02-15T11:19:32.942Z,1026.00
2019-02-15T11:20:32.959Z,1026.01
2019-02-15T11:21:32.910Z,1025.99
2019-02-15T11:22:32.899Z,1026.00
2019-02-15T11:23:32.884Z,1025.89
2019-02-15T11:24:32.875Z,1025.92
2019-02-15T11:25:32.855Z,1025.88
2019-02-15T11:26:32.875Z,1025.93
2019-02-15T11:27:32.836Z,1025.91
2019-02-15T11:28:32.841Z,1025.85
2019-02-15T11:29:32.815Z,1025.87
2019-02-15T11:30:32.797Z,1025.83
2019-02-15T11:31:32.789Z,1025.83
2019-02-15T11:32:32.804Z,1025.83
2019-02-15T11:33:32.791Z,1025.82
2019-02-15T11:34:32.757Z,1025.83
2019-02-15T11:35:32.749Z,1025.80
2019-02-15T11:36:32.741Z,1025.79
2019-02-15T11:37:32.720Z,1025.75
2019-02-15T11:38:32.737Z,1025.77
2019-02-15T11:39:32.701Z,1025.77
2019-02-15T11:40:32.690Z,1025.79
2019-02-15T11:41:32.677Z,1025.75
2019-02-15T11:42:32.669Z,1025.75
2019-02-15T11:43:32.664Z,1025.72
2019-02-15T11:44:32.668Z,1025.72
2019-02-15T11:45:32.635Z,1025.63
2019-02-15T11:46:32.621Z,1025.63
2019-02-15T11:47:32.609Z,1025.64
2019-02-15T11:48:32.603Z,1025.62
2019-02-15T11:49:32.586Z,1025.64
2019-02-15T11:50:32.592Z,1025.58
2019-02-15T11:51:32.566Z,1025.53
2019-02-15T11:52:32.566Z,1025.56
2019-02-15T11:53:32.557Z,1025.57
2019-02-15T11:54:32.529Z,1025.54
2019-02-15T11:55:32.536Z,1025.54
2019-02-15T11:56:32.515Z,1025.53
2019-02-15T11:57:32.509Z,1025.55
2019-02-15T11:58:32.490Z,1025.53
2019-02-15T11:59:32.644Z,1025.52
2019-02-15T12:00:32.466Z,1025.50
2019-02-15T12:01:32.480Z,1025.51
2019-02-15T12:02:32.443Z,1025.52
2019-02-15T12:03:32.432Z,1025.47
2019-02-15T12:04:32.422Z,1025.51
2019-02-15T12:05:32.410Z,1025.48